Lampasas, TX

1:45 AM CDT on June 23, 2018 (GMT -0500)
Lampasas

Weather History for KLZZ - March, 2016

Change the Weather History Date:

Friday, March 4, 2016

  Actual Average (KGRK) Record (KGRK)
Temperature  
Mean Temperature 55 °F -  
Max Temperature 73 °F 64 °F 86 °F (2013)
Min Temperature 37 °F 43 °F 28 °F (2002)
Degree Days  
Heating Degree Days 10    
Growing Degree Days 5 (Base 50)    
Moisture  
Dew Point 37 °F    
Average Humidity 49    
Maximum Humidity 88    
Minimum Humidity 26    
Precipitation  
Precipitation 0.00 in - - ()
Sea Level Pressure  
Sea Level Pressure 30.11 in    
Wind  
Wind Speed 4 mph (SSE)    
Max Wind Speed 10 mph    
Max Gust Speed 16 mph    
Visibility 10 miles    
Events      
Averages and records for this station are not official NWS values.
T = Trace of Precipitation, MM = Missing Value Source: NWS Daily Summary

Daily Weather History Graph

Daily Weather History Graph

Search for Another Location

Airport or City:

Astronomy

Mar. 04, 2016 Rise Set
Actual Time 6:55 AM CST 6:33 PM CST
Civil Twilight 6:31 AM CST 6:58 PM CST
Nautical Twilight 6:03 AM CST 7:26 PM CST
Astronomical Twilight 5:35 AM CST 7:54 PM CST
Moon 3:21 AM CST (3/4) 2:14 PM CST (3/4)
Length of Visible Light 12h 26m
Length of Day
11h 38m
Waning Crescent, 23% of the Moon is Illuminated
Mar 4
Waning Crescent
Mar 8
New
Mar 15
First Quarter
Mar 23
Full
Mar 31
Last Quarter

Hourly Weather History & Observations

Time (CST) Temp. Windchill Dew Point Humidity Pressure Visibility Wind Dir Wind Speed Gust Speed Precip Events Conditions
12:15 AM 52.9 °F - 34.7 °F 50% 30.16 in 10.0 mi NNW 6.9 mph - N/A   Clear
12:35 AM 52.2 °F - 35.1 °F 52% 30.17 in 10.0 mi NNW 5.8 mph - N/A   Clear
12:55 AM 50.9 °F - 34.9 °F 54% 30.17 in 10.0 mi NNW 5.8 mph - N/A   Clear
1:15 AM 50.4 °F - 34.7 °F 55% 30.17 in 10.0 mi NNW 5.8 mph - N/A   Clear
1:35 AM 50.5 °F - 34.2 °F 53% 30.16 in 10.0 mi Calm Calm - N/A   Clear
2:15 AM 44.4 °F - 34.9 °F 69% 30.16 in 10.0 mi Calm Calm - N/A   Clear
2:35 AM 43.3 °F - 35.6 °F 74% 30.16 in 10.0 mi Calm Calm - N/A   Clear
2:55 AM 46.4 °F - 36.0 °F 67% 30.14 in 10.0 mi Calm Calm - N/A   Clear
3:15 AM 43.5 °F 40.9 °F 34.9 °F 72% 30.14 in 10.0 mi North 4.6 mph - N/A   Clear
3:35 AM 40.6 °F - 35.2 °F 81% 30.15 in 10.0 mi Calm Calm - N/A   Clear
3:55 AM 41.4 °F - 36.5 °F 83% 30.15 in 10.0 mi Calm Calm - N/A   Clear
4:15 AM 42.1 °F 40.2 °F 35.6 °F 78% 30.15 in 10.0 mi West 3.5 mph - N/A   Clear
4:35 AM 46.6 °F - 35.6 °F 66% 30.14 in 10.0 mi Calm Calm - N/A   Clear
4:55 AM 41.2 °F - 34.9 °F 78% 30.15 in 10.0 mi Calm Calm - N/A   Clear
5:15 AM 40.1 °F - 35.1 °F 82% 30.15 in 10.0 mi Calm Calm - N/A   Clear
5:35 AM 40.1 °F - 34.9 °F 82% 30.15 in 10.0 mi Calm Calm - N/A   Clear
5:55 AM 37.9 °F 33.5 °F 34.7 °F 88% 30.16 in 10.0 mi West 5.8 mph - N/A   Clear
6:15 AM 43.7 °F - 34.7 °F 71% 30.16 in 10.0 mi Calm Calm - N/A   Clear
6:35 AM 41.4 °F - 35.1 °F 78% 30.16 in 10.0 mi Calm Calm - N/A   Clear
6:55 AM 40.1 °F - 34.9 °F 82% 30.16 in 10.0 mi Calm Calm - N/A   Clear
7:15 AM 41.0 °F - 35.2 °F 80% 30.16 in 10.0 mi Calm Calm - N/A   Clear
7:35 AM 42.1 °F - 37.4 °F 83% 30.17 in 10.0 mi Calm Calm - N/A   Clear
7:55 AM 47.1 °F - 40.8 °F 79% 30.17 in 10.0 mi Calm Calm - N/A   Clear
8:15 AM 53.8 °F - 37.4 °F 54% 30.18 in 10.0 mi Calm Calm - N/A   Clear
8:35 AM 55.4 °F - 37.6 °F 51% 30.18 in 10.0 mi ESE 3.5 mph - N/A   Clear
8:55 AM 55.4 °F - 36.5 °F 49% 30.19 in 10.0 mi ESE 4.6 mph - N/A   Clear
9:15 AM 58.1 °F - 37.9 °F 47% 30.19 in 10.0 mi SE 5.8 mph - N/A   Clear
9:35 AM 58.1 °F - 36.0 °F 44% 30.20 in 10.0 mi SE 6.9 mph - N/A   Clear
9:55 AM 60.8 °F - 38.3 °F 43% 30.20 in 10.0 mi SE 5.8 mph - N/A   Clear
10:15 AM 61.9 °F - 33.8 °F 35% 30.21 in 10.0 mi SE 8.1 mph - N/A   Clear
10:35 AM 63.0 °F - 34.5 °F 35% 30.21 in 10.0 mi SSE 5.8 mph - N/A   Clear
10:55 AM 63.7 °F - 35.4 °F 35% 30.20 in 10.0 mi SE 8.1 mph - N/A   Clear
11:15 AM 65.5 °F - 35.8 °F 33% 30.20 in 10.0 mi SSE 8.1 mph - N/A   Clear
11:35 AM 66.6 °F - 35.8 °F 32% 30.19 in 10.0 mi SE 9.2 mph - N/A   Clear
11:55 AM 67.6 °F - 36.1 °F 31% 30.18 in 10.0 mi South 4.6 mph - N/A   Clear
12:15 PM 68.0 °F - 35.4 °F 30% 30.17 in 10.0 mi SE 4.6 mph - N/A   Clear
12:35 PM 69.8 °F - 35.6 °F 28% 30.16 in 10.0 mi SSE 6.9 mph - N/A   Clear
12:55 PM 70.7 °F - 36.9 °F 29% 30.14 in 10.0 mi SE 6.9 mph - N/A   Clear
1:15 PM 70.7 °F - 36.7 °F 29% 30.13 in 10.0 mi South 6.9 mph - N/A   Clear
1:35 PM 70.7 °F - 35.2 °F 27% 30.12 in 10.0 mi SE 8.1 mph - N/A   Clear
1:55 PM 70.7 °F - 35.8 °F 28% 30.10 in 10.0 mi SE 10.4 mph - N/A   Clear
2:15 PM 71.6 °F - 35.4 °F 27% 30.09 in 10.0 mi SE 9.2 mph - N/A   Clear
2:35 PM 71.8 °F - 34.9 °F 26% 30.07 in 10.0 mi SE 10.4 mph - N/A   Clear
2:55 PM 72.3 °F - 36.7 °F 27% 30.06 in 10.0 mi SE 10.4 mph 16.1 mph N/A   Clear
3:15 PM 73.0 °F - 37.2 °F 27% 30.06 in 10.0 mi SE 10.4 mph - N/A   Clear
3:35 PM 73.0 °F - 38.8 °F 29% 30.06 in 10.0 mi SSE 5.8 mph - N/A   Clear
3:55 PM 73.6 °F - 38.5 °F 28% 30.05 in 10.0 mi SE 9.2 mph - N/A   Clear
4:15 PM 73.0 °F - 38.7 °F 29% 30.04 in 10.0 mi SSE 8.1 mph 16.1 mph N/A   Clear
4:35 PM 73.0 °F - 37.6 °F 28% 30.03 in 10.0 mi SSE 8.1 mph - N/A   Clear
4:55 PM 73.2 °F - 36.5 °F 26% 30.04 in 10.0 mi South 6.9 mph - N/A   Clear
5:15 PM 73.0 °F - 37.4 °F 27% 30.03 in 10.0 mi South 6.9 mph - N/A   Clear
5:35 PM 72.0 °F - 37.4 °F 28% 30.03 in 10.0 mi SSE 4.6 mph - N/A   Clear
5:55 PM 70.7 °F - 38.3 °F 31% 30.03 in 10.0 mi SSE 5.8 mph - N/A   Clear
6:15 PM 70.7 °F - 39.9 °F 33% 30.03 in 10.0 mi SE 6.9 mph - N/A   Clear
6:35 PM 68.0 °F - 40.3 °F 36% 30.03 in 10.0 mi SSE 5.8 mph - N/A   Clear
6:55 PM 64.4 °F - 39.4 °F 40% 30.03 in 10.0 mi SE 5.8 mph - N/A   Clear
7:15 PM 63.5 °F - 38.8 °F 40% 30.03 in 10.0 mi SSE 6.9 mph - N/A   Clear
7:35 PM 63.5 °F - 39.4 °F 41% 30.03 in 10.0 mi SSE 6.9 mph - N/A   Clear
7:55 PM 63.0 °F - 39.7 °F 42% 30.03 in 10.0 mi SSE 4.6 mph - N/A   Clear
8:15 PM 63.0 °F - 40.3 °F 43% 30.03 in 10.0 mi SSE 5.8 mph - N/A   Clear
8:35 PM 61.7 °F - 40.1 °F 45% 30.04 in 10.0 mi SSE 5.8 mph - N/A   Clear
8:55 PM 61.7 °F - 40.1 °F 45% 30.04 in 10.0 mi SSE 5.8 mph - N/A   Clear
9:15 PM 60.6 °F - 40.3 °F 47% 30.04 in 10.0 mi South 3.5 mph - N/A   Clear
9:35 PM 60.4 °F - 41.5 °F 50% 30.05 in 10.0 mi South 4.6 mph - N/A   Clear
9:55 PM 60.4 °F - 41.9 °F 50% 30.05 in 10.0 mi South 4.6 mph - N/A   Clear
10:15 PM 58.1 °F - 41.0 °F 53% 30.06 in 10.0 mi South 3.5 mph - N/A   Clear
10:35 PM 58.1 °F - 41.9 °F 55% 30.05 in 10.0 mi South 3.5 mph - N/A   Clear
10:55 PM 58.1 °F - 42.6 °F 56% 30.05 in 10.0 mi Calm Calm - N/A   Clear
11:15 PM 56.8 °F - 41.5 °F 57% 30.06 in 10.0 mi Calm Calm - N/A   Clear
11:35 PM 56.8 °F - 41.5 °F 57% 30.07 in 10.0 mi Calm Calm - N/A   Clear
11:55 PM 56.1 °F - 41.0 °F 57% 30.07 in 10.0 mi Calm Calm - N/A   Clear